Home > Products > Valid Products > TAF

000
FTUS46 KMFR 311100
TAFMFR
TAF
KMFR 311126Z 3112/0112 VRB03KT P6SM FEW100 SCT250
     FM312200 33011KT P6SM VCTS BKN100CB BKN250
     FM010400 VRB05KT P6SM SCT100 BKN250=



000
FTUS46 KMFR 311100
TAFLMT
TAF
KLMT 311126Z 3112/0112 VRB03KT P6SM SCT200
     FM312200 31012KT P6SM VCTS BKN060CB BKN200
     FM010500 VRB03KT P6SM SCT080 BKN200=



000
FTUS46 KMFR 311100
TAFOTH
TAF
KOTH 311126Z 3112/0112 01008KT 1SM BR OVC002
     FM311700 36008KT P6SM BKN004
     FM311900 36012G20KT P6SM SCT008
     FM312100 36018G30KT P6SM SKC
     FM010600 36012KT P6SM BKN007
     FM011100 35003KT 3SM BR OVC003=



000
FTUS46 KMFR 311100
TAFRBG
TAF
KRBG 311126Z 3112/0112 VRB03KT P6SM SCT100 SCT250
     FM312100 36011G18KT P6SM SCT100 BKN250
     FM010400 30004KT P6SM SCT100 BKN250=



000
FTUS46 KMFR 311000 AAA
TAFOTH
TAF AMD
KOTH 311019Z 3110/0106 VRB03KT P6SM SKC
     FM311200 01008KT 1SM BR OVC002
     FM311700 36008KT P6SM OVC004
     FM311900 36012G20KT P6SM SCT005
     FM312100 36018G30KT P6SM SKC
     FM010400 36012KT P6SM BKN007=



000
FTUS46 KMFR 310500 RRA
TAFRBG
TAF
KRBG 310553Z 3106/0106 VRB03KT P6SM SCT100 SCT250
     FM312100 36011G18KT P6SM SCT100 BKN250
     FM010400 30004KT P6SM SCT100 BKN250=



000
FTUS46 KMFR 310500 RRA
TAFLMT
TAF
KLMT 310553Z 3106/0106 VRB03KT P6SM VCSH BKN080 BKN200
     FM312200 31012KT P6SM VCTS BKN060CB BKN200
     FM010500 VRB03KT P6SM SCT080 BKN200=



000
FTUS46 KMFR 310500 RRA
TAFOTH
TAF
KOTH 310553Z 3106/0106 01010KT P6SM SKC
     FM311000 01008KT 1SM BR OVC002
     FM311700 36008KT P6SM OVC004
     FM311900 36012G20KT P6SM SCT005
     FM312100 36018G30KT P6SM SKC
     FM010400 36012KT P6SM BKN007=



000
FTUS46 KMFR 310500 RRA
TAFMFR
TAF
KMFR 310553Z 3106/0106 VRB03KT P6SM SCT100 SCT250
     FM312200 33011KT P6SM VCTS BKN100CB BKN250
     FM010400 VRB05KT P6SM SCT100 BKN250=



000
FTUS46 KMFR 310400 AAA
TAFMFR
TAF AMD
KMFR 310455Z 3105/3124 VRB03KT P6SM SCT100 SCT250 WS005/19020KT
      TEMPO 3105/3106 19011KT
     FM310600 VRB03KT P6SM SCT100 SCT250
     FM312200 33010KT P6SM SCT060 BKN100 BKN250=



000
FTUS46 KMFR 302300
TAFOTH
TAF
KOTH 302320Z 3100/3124 36020G35KT P6SM SKC
     FM310200 36012G20KT P6SM SKC
     FM310600 01010KT 3SM BR OVC003
     FM311200 01008KT 1SM BR OVC002
     FM311700 36008KT P6SM OVC004
     FM311900 36012G20KT P6SM SCT005
     FM312100 36018G30KT P6SM SKC=



000
FTUS46 KMFR 302300
TAFMFR
TAF
KMFR 302320Z 3100/3124 33010KT P6SM VCTS SCT050CB BKN100 BKN250
     FM310500 VRB03KT P6SM SCT100 SCT250
     FM312200 33010KT P6SM SCT060 BKN100 BKN250=



000
FTUS46 KMFR 302300
TAFLMT
TAF
KLMT 302320Z 3100/3124 31011KT P6SM VCTS BKN060CB BKN200
     FM310500 VRB03KT P6SM SCT060 BKN200
     FM312200 31012KT P6SM VCTS BKN060CB BKN200=



000
FTUS46 KMFR 302300
TAFRBG
TAF
KRBG 302320Z 3100/3124 36010KT P6SM SCT100 SCT250
     FM310400 VRB03KT P6SM SCT100 SCT250
     FM312100 36010KT P6SM SCT100 BKN250=



000
FTUS46 KMFR 302200 AAA
TAFMFR
TAF AMD
KMFR 302246Z 3023/3118 14014G20KT P6SM TS SCT050CB BKN100
     FM310000 31012KT P6SM VCTS BKN100CB BKN250
     FM310400 30006KT P6SM SCT100 BKN300=



000
FTUS46 KMFR 301800 AAA
TAFOTH
TAF AMD
KOTH 301849Z 3019/3118 36010KT P6SM FEW005
     FM301900 36018G30KT P6SM SCT010 BKN250
     FM310100 36016G25KT P6SM OVC008
     FM310400 36014KT P6SM OVC005
     FM310900 35005KT 3SM BR OVC003=



000
FTUS46 KMFR 301700 RRA
TAFMFR
TAF
KMFR 301749Z 3018/3118 VRB03KT P6SM SKC
     FM302100 31012KT P6SM VCTS BKN100CB BKN250
     FM310400 30006KT P6SM SCT100 BKN300=



000
FTUS46 KMFR 301700 RRA
TAFRBG
TAF
KRBG 301749Z 3018/3118 VRB03KT P6SM SKC
     FM302000 36011KT P6SM FEW100 SCT250
     FM310400 35005KT P6SM SCT100 BKN250=



000
FTUS46 KMFR 301700 RRA
TAFLMT
TAF
KLMT 301749Z 3018/3118 VRB03KT P6SM SCT120
     FM302100 16008KT P6SM VCTS BKN060CB BKN200
     FM302300 32010KT P6SM VCTS BKN060CB BKN300
     FM310400 33005KT P6SM SCT060 BKN200
     FM310900 12003KT P6SM FEW200=



000
FTUS46 KMFR 301700 RRA
TAFOTH
TAF
KOTH 301749Z 3018/3118 36010KT P6SM OVC005
     FM301900 36018G30KT P6SM SCT010 BKN250
     FM310100 36016G25KT P6SM OVC008
     FM310400 36014KT P6SM OVC005
     FM310900 35005KT 3SM BR OVC003=



000
FTUS46 KMFR 301100
TAFLMT
TAF
KLMT 301127Z 3012/3112 VRB03KT P6SM SCT120
     FM302100 16008KT P6SM VCTS BKN060CB BKN200
     FM302300 32010KT P6SM VCTS BKN060CB BKN300
     FM310400 33005KT P6SM SCT060 BKN200
     FM310900 12003KT P6SM FEW200=



000
FTUS46 KMFR 301100
TAFMFR
TAF
KMFR 301127Z 3012/3112 VRB03KT P6SM SKC
     FM302100 31012KT P6SM VCTS BKN100CB BKN250
     FM310400 30006KT P6SM SCT100 BKN300=



000
FTUS46 KMFR 301100
TAFRBG
TAF
KRBG 301127Z 3012/3112 VRB03KT P6SM SKC
     FM302000 36011KT P6SM FEW100 SCT250
     FM310400 35005KT P6SM SCT100 BKN250=



000
FTUS46 KMFR 301100
TAFOTH
TAF
KOTH 301127Z 3012/3112 36010KT 3SM BR OVC004
     FM301500 36010KT P6SM OVC005
     FM301900 36018G30KT P6SM SCT010 BKN250
     FM310100 36016G25KT P6SM OVC008
     FM310400 36014KT P6SM OVC005
     FM310900 35005KT 3SM BR OVC003=



000
FTUS46 KMFR 300500
TAFMFR
TAF
KMFR 300537Z 3006/3106 VRB03KT P6SM SKC
     FM302100 31012KT P6SM VCTS BKN100CB BKN250
     FM310400 30006KT P6SM SCT100 BKN250=



000
FTUS46 KMFR 300500
TAFRBG
TAF
KRBG 300537Z 3006/3106 VRB03KT P6SM SKC
     FM302000 36011KT P6SM FEW100 BKN250
     FM310400 35005KT P6SM SCT100 BKN250=



000
FTUS46 KMFR 300500
TAFLMT
TAF
KLMT 300537Z 3006/3106 VRB03KT P6SM SCT120
     FM302100 16008KT P6SM VCTS BKN060CB BKN200
     FM302300 32010KT P6SM VCTS BKN060CB BKN200
     FM310400 33005KT P6SM SCT060 BKN200=



000
FTUS46 KMFR 300500
TAFOTH
TAF
KOTH 300537Z 3006/3106 36011KT P6SM OVC005
     FM300800 36010KT 3SM BR OVC004
     FM301300 36010KT P6SM OVC005
     FM301900 36018G30KT P6SM SCT010 BKN250
     FM310100 36016G25KT P6SM OVC008
     FM310400 36014KT P6SM OVC005=



000
FTUS46 KMFR 292300
TAFMFR
TAF
KMFR 292320Z 3000/3024 31012KT P6SM SCT060
     FM300500 VRB03KT P6SM SKC
     FM302100 31012KT P6SM BKN100 BKN250=



000
FTUS46 KMFR 292300
TAFLMT
TAF
KLMT 292320Z 3000/3024 32010KT P6SM VCTS SCT060CB SCT120
     FM300600 VRB03KT P6SM SCT120
     FM302300 32010KT P6SM VCTS BKN060CB BKN200=



000
FTUS46 KMFR 292300
TAFOTH
TAF
KOTH 292320Z 3000/3024 35018G30KT P6SM OVC008
     FM300400 36010KT P6SM OVC006
     FM300800 36010KT 3SM BR OVC004
     FM301300 36010KT P6SM OVC005
     FM301900 36018G30KT P6SM SCT010 BKN250=



000
FTUS46 KMFR 292300
TAFRBG
TAF
KRBG 292320Z 3000/3024 36009KT P6SM SKC
     FM300400 VRB03KT P6SM SKC
     FM302000 36010KT P6SM BKN250=



000
FTUS46 KMFR 292000 AAA
TAFOTH
TAF AMD
KOTH 292005Z 2920/3018 35018G30KT P6SM SCT005
      TEMPO 2920/2922 BKN005
     FM300200 36018G25KT P6SM OVC006
     FM300700 35010KT 3SM BR OVC003
     FM301200 36010KT P6SM OVC006=



000
FTUS46 KMFR 291700
TAFLMT
TAF
KLMT 291733Z 2918/3018 VRB03KT P6SM FEW200
     FM292200 33009KT P6SM VCTS FEW080CB SCT100 SCT300
     FM300500 VRB03KT P6SM FEW300=



000
FTUS46 KMFR 291700
TAFRBG
TAF
KRBG 291733Z 2918/3018 VRB03KT P6SM SKC
     FM292000 36009KT P6SM FEW050
     FM300400 36003KT P6SM SKC=



000
FTUS46 KMFR 291700
TAFOTH
TAF
KOTH 291733Z 2918/3018 35010KT P6SM BKN008
     FM291900 35020G28KT P6SM SCT008
     FM300200 36018G25KT P6SM OVC006
     FM300700 35010KT 3SM BR OVC003
     FM301200 36010KT P6SM OVC006=



000
FTUS46 KMFR 291700
TAFMFR
TAF
KMFR 291733Z 2918/3018 VRB03KT P6SM FEW120
     FM292200 31007KT P6SM FEW060 SCT100
     FM300500 VRB03KT P6SM SKC=



000
FTUS46 KMFR 291100
TAFRBG
TAF
KRBG 291120Z 2912/3012 VRB03KT P6SM SKC
     FM292000 36009KT P6SM FEW050
     FM300400 36003KT P6SM SKC=



000
FTUS46 KMFR 291100
TAFOTH
TAF
KOTH 291120Z 2912/3012 35006KT 2SM BR OVC003
     FM291700 35010KT P6SM BKN005
     FM291900 35020G28KT P6SM FEW006
     FM300200 36018G25KT P6SM OVC006
     FM300700 35010KT 3SM BR OVC003=



000
FTUS46 KMFR 291100
TAFMFR
TAF
KMFR 291120Z 2912/3012 VRB03KT P6SM FEW120
     FM292200 31007KT P6SM FEW060 SCT100
     FM300500 VRB03KT P6SM SKC=



000
FTUS46 KMFR 291100
TAFLMT
TAF
KLMT 291120Z 2912/3012 VRB03KT P6SM FEW200
     FM292200 33009KT P6SM VCTS FEW080CB SCT100 SCT300
     FM300500 VRB03KT P6SM FEW300=



000
FTUS46 KMFR 290500
TAFLMT
TAF
KLMT 290540Z 2906/3006 32006KT P6SM FEW100
     FM291200 VRB03KT P6SM FEW200
     FM292200 22006KT P6SM SCT060 SCT100=



000
FTUS46 KMFR 290500
TAFRBG
TAF
KRBG 290540Z 2906/3006 VRB03KT P6SM SKC
     FM292000 36007KT P6SM SKC=



000
FTUS46 KMFR 290500
TAFOTH
TAF
KOTH 290540Z 2906/3006 35010G18KT 5SM BR OVC003
     FM290900 35006KT 1/2SM FG OVC003
     FM291700 35010KT P6SM BKN005
     FM291900 35018G25KT P6SM FEW006=



000
FTUS46 KMFR 290500
TAFMFR
TAF
KMFR 290540Z 2906/3006 VRB03KT P6SM FEW120
     FM292200 31007KT P6SM FEW060 SCT100=



000
FTUS46 KMFR 282300
TAFOTH
TAF
KOTH 282321Z 2900/2924 35020G28KT P6SM BKN005
     FM290300 35014G20KT 4SM BR OVC005
     FM290900 35006KT 1/2SM FG OVC003
     FM291700 35010KT P6SM BKN005
     FM291900 35018G25KT P6SM FEW006=



000
FTUS46 KMFR 282300
TAFMFR
TAF
KMFR 282321Z 2900/2924 30010KT P6SM SCT060 SCT100
     FM290400 VRB03KT P6SM FEW120
     FM292200 31007KT P6SM FEW060 SCT100=



000
FTUS46 KMFR 282300
TAFRBG
TAF
KRBG 282321Z 2900/2924 35010KT P6SM SKC
     FM290400 VRB03KT P6SM SKC
     FM292000 36007KT P6SM SKC=



000
FTUS46 KMFR 282300
TAFLMT
TAF
KLMT 282321Z 2900/2924 29008KT P6SM FEW060 SCT100
     FM290100 31010KT P6SM FEW060 SCT100
     FM290400 30004KT P6SM FEW120
     FM291200 VRB03KT P6SM FEW200
     FM292200 22006KT P6SM SCT060 SCT100=



000
FTUS46 KMFR 282200 AAB
TAFOTH
TAF AMD
KOTH 282238Z 2823/2918 35020G28KT P6SM BKN006
     FM290300 35014G20KT 4SM BR OVC005
     FM290800 35007KT 1/2SM FG OVC003=



000
FTUS46 KMFR 281900 AAA
TAFOTH
TAF AMD
KOTH 281927Z 2819/2918 35018G23KT P6SM FEW005
     FM282100 36020G28KT P6SM SCT006
     FM290000 35020G28KT P6SM BKN006
     FM290300 35014G20KT 4SM BR OVC005
     FM290800 35007KT 1/2SM FG OVC003=



000
FTUS46 KMFR 281700 RRA
TAFMFR
TAF
KMFR 281745Z 2818/2918 02003KT P6SM SKC
     FM282300 30010KT P6SM SKC
     FM290400 VRB03KT P6SM FEW120=



000
FTUS46 KMFR 281700 RRA
TAFLMT
TAF
KLMT 281745Z 2818/2918 30004KT P6SM SKC
     FM290000 31010KT P6SM FEW080 BKN120
     FM290400 VRB03KT P6SM FEW120=



000
FTUS46 KMFR 281700 RRA
TAFRBG
TAF
KRBG 281745Z 2818/2918 25003KT P6SM SKC
     FM282300 35011KT P6SM SKC
     FM290400 VRB03KT P6SM SKC=



000
FTUS46 KMFR 281700 RRA
TAFOTH
TAF
KOTH 281745Z 2818/2918 33008KT P6SM FEW004
     FM281900 34008KT P6SM BKN004
     FM282100 36020G28KT P6SM BKN004
     FM290300 36014G20KT 4SM BR OVC005
     FM290800 35007KT 1/2SM FG OVC003=



    US Dept of Commerce
    National Oceanic and Atmospheric Administration
    National Weather Service
    1325 East West Highway
    Silver Spring, MD 20910
    Page Author: NWS Internet Services Team
Disclaimer
Information Quality
Credits
Glossary
Privacy Policy
Freedom of Information Act (FOIA)
About Us
Career Opportunities